createdAt,value
2022-12-15T00:02:22.811Z,19.90
2022-12-15T00:05:12.810Z,18.40
2022-12-15T00:08:02.475Z,17.50
2022-12-15T00:10:52.048Z,22.00
2022-12-15T00:13:41.555Z,18.60
2022-12-15T00:16:31.251Z,17.60
2022-12-15T00:19:20.850Z,17.20
2022-12-15T00:22:10.498Z,18.20
2022-12-15T00:25:00.156Z,18.20
2022-12-15T00:27:49.973Z,17.50
2022-12-15T00:30:39.604Z,17.30
2022-12-15T00:33:30.849Z,19.10
2022-12-15T00:36:21.040Z,17.20
2022-12-15T00:38:53.190Z,20.50
2022-12-15T00:41:25.328Z,17.50
2022-12-15T00:43:57.499Z,18.30
2022-12-15T00:46:47.100Z,18.20
2022-12-15T00:49:36.881Z,22.10
2022-12-15T00:52:27.146Z,17.60
2022-12-15T00:55:17.741Z,18.00
2022-12-15T00:58:07.583Z,19.20
2022-12-15T01:00:57.238Z,19.70
2022-12-15T01:03:46.742Z,18.20
2022-12-15T01:06:39.469Z,20.50
2022-12-15T01:09:31.833Z,17.40
2022-12-15T01:12:21.515Z,17.70
2022-12-15T01:15:10.991Z,18.50
2022-12-15T01:18:00.710Z,16.30
2022-12-15T01:20:34.745Z,15.40
2022-12-15T01:23:07.169Z,18.30
2022-12-15T01:25:41.092Z,18.80
2022-12-15T01:28:13.222Z,14.90
2022-12-15T01:30:45.447Z,18.50
2022-12-15T01:33:18.707Z,18.60
2022-12-15T01:36:00.358Z,19.60
2022-12-15T01:38:32.865Z,16.50
2022-12-15T01:41:06.877Z,19.60
2022-12-15T01:43:41.007Z,17.50
2022-12-15T01:46:15.240Z,18.60
2022-12-15T01:48:50.646Z,17.30
2022-12-15T01:51:33.477Z,19.00
2022-12-15T01:54:09.502Z,17.30
2022-12-15T01:56:46.898Z,20.10
2022-12-15T01:59:25.111Z,18.50
2022-12-15T02:01:57.512Z,19.30
2022-12-15T02:04:30.130Z,18.40
2022-12-15T02:07:02.262Z,19.10
2022-12-15T02:09:34.758Z,19.30
2022-12-15T02:12:16.981Z,17.00
2022-12-15T02:15:00.243Z,17.40
2022-12-15T02:17:40.524Z,19.00
2022-12-15T02:20:36.304Z,17.40
2022-12-15T02:23:32.531Z,17.10
2022-12-15T02:26:28.799Z,17.40
2022-12-15T02:29:13.333Z,16.80
2022-12-15T02:31:51.721Z,17.10
2022-12-15T02:34:34.016Z,17.90
2022-12-15T02:37:11.967Z,18.70
2022-12-15T02:39:44.429Z,16.50
2022-12-15T02:42:16.834Z,18.10
2022-12-15T02:44:53.488Z,17.50
2022-12-15T02:47:34.106Z,16.10
2022-12-15T02:50:35.121Z,16.00
2022-12-15T02:53:20.769Z,17.70
2022-12-15T02:56:02.987Z,18.80
2022-12-15T02:58:42.800Z,14.70
2022-12-15T03:01:20.036Z,16.80
2022-12-15T03:03:53.154Z,17.80
2022-12-15T03:06:28.005Z,16.10
2022-12-15T03:09:00.177Z,15.10
2022-12-15T03:11:32.583Z,15.90
2022-12-15T03:14:05.032Z,16.70
2022-12-15T03:16:37.252Z,16.20
2022-12-15T03:19:09.471Z,15.20
2022-12-15T03:21:41.624Z,15.50
2022-12-15T03:24:14.040Z,15.90
2022-12-15T03:26:50.026Z,14.70
2022-12-15T03:29:22.484Z,13.70
2022-12-15T03:31:54.780Z,15.80
2022-12-15T03:34:27.214Z,15.00
2022-12-15T03:36:59.787Z,14.30
2022-12-15T03:39:32.052Z,16.90
2022-12-15T03:42:04.328Z,17.40
2022-12-15T03:44:36.517Z,16.20
2022-12-15T03:47:08.757Z,16.90
2022-12-15T03:49:40.973Z,20.60
2022-12-15T03:52:13.196Z,15.30
2022-12-15T03:54:45.341Z,19.10
2022-12-15T03:57:17.467Z,14.30
2022-12-15T03:59:49.694Z,17.30
2022-12-15T04:02:22.573Z,17.30
2022-12-15T04:04:55.085Z,16.40
2022-12-15T04:07:27.248Z,15.80
2022-12-15T04:09:59.382Z,17.00
2022-12-15T04:12:31.603Z,17.90
2022-12-15T04:15:03.794Z,16.50
2022-12-15T04:17:36.189Z,15.70
2022-12-15T04:20:10.831Z,16.90
2022-12-15T04:22:45.180Z,19.10
2022-12-15T04:25:37.374Z,16.80
2022-12-15T04:28:27.591Z,17.00
2022-12-15T04:31:21.315Z,15.00
2022-12-15T04:34:14.252Z,16.20
2022-12-15T04:37:07.977Z,15.80
2022-12-15T04:39:59.791Z,13.90
2022-12-15T04:42:51.706Z,17.30
2022-12-15T04:45:43.807Z,15.70
2022-12-15T04:48:34.125Z,15.90
2022-12-15T04:51:24.179Z,15.80
2022-12-15T04:54:13.797Z,17.90
2022-12-15T04:57:04.024Z,16.50
2022-12-15T04:59:53.614Z,15.70
2022-12-15T05:02:43.157Z,13.60
2022-12-15T05:05:33.195Z,17.30
2022-12-15T05:08:22.707Z,17.40
2022-12-15T05:11:12.609Z,19.10
2022-12-15T05:14:02.252Z,16.80
2022-12-15T05:16:51.742Z,17.30
2022-12-15T05:19:41.564Z,19.00
2022-12-15T05:22:31.275Z,19.50
2022-12-15T05:25:20.838Z,16.30
2022-12-15T05:28:10.335Z,18.60
2022-12-15T05:31:00.226Z,17.90
2022-12-15T05:33:32.690Z,18.60
2022-12-15T05:36:06.054Z,17.80
2022-12-15T05:38:38.288Z,16.10
2022-12-15T05:41:10.435Z,19.90
2022-12-15T05:43:42.613Z,17.70
2022-12-15T05:46:15.866Z,20.20
2022-12-15T05:48:48.356Z,19.90
2022-12-15T05:51:20.514Z,22.10
2022-12-15T05:53:52.678Z,18.70
2022-12-15T05:56:26.178Z,18.50
2022-12-15T05:58:58.836Z,30.50
2022-12-15T06:01:32.142Z,26.90
2022-12-15T06:04:04.718Z,25.00
2022-12-15T06:06:37.071Z,19.80
2022-12-15T06:09:09.464Z,21.50
2022-12-15T06:11:41.884Z,23.00
2022-12-15T06:14:14.074Z,22.30
2022-12-15T06:16:49.968Z,19.20
2022-12-15T06:19:24.155Z,22.40
2022-12-15T06:21:56.304Z,19.90
2022-12-15T06:24:28.721Z,16.70
2022-12-15T06:27:00.866Z,20.70
2022-12-15T06:29:33.354Z,18.90
2022-12-15T06:32:05.998Z,19.90
2022-12-15T06:34:38.307Z,20.50
2022-12-15T06:37:10.450Z,15.90
2022-12-15T06:39:42.817Z,16.40
2022-12-15T06:42:15.411Z,21.70
2022-12-15T06:44:47.661Z,18.80
2022-12-15T06:47:22.342Z,19.50
2022-12-15T06:49:55.502Z,16.90
2022-12-15T06:52:27.663Z,20.40
2022-12-15T06:54:59.843Z,17.70
2022-12-15T06:57:32.038Z,16.70
2022-12-15T07:00:04.972Z,18.30
2022-12-15T07:02:37.363Z,19.90
2022-12-15T07:05:10.531Z,17.70
2022-12-15T07:07:42.709Z,18.70
2022-12-15T07:10:15.151Z,20.90
2022-12-15T07:12:47.283Z,20.60
2022-12-15T07:15:19.856Z,23.60
2022-12-15T07:17:52.469Z,17.90
2022-12-15T07:20:28.768Z,18.40
2022-12-15T07:23:03.911Z,16.90
2022-12-15T07:25:36.791Z,19.60
2022-12-15T07:28:09.803Z,16.00
2022-12-15T07:30:42.035Z,20.90
2022-12-15T07:33:15.100Z,16.70
2022-12-15T07:35:56.150Z,20.00
2022-12-15T07:38:29.679Z,23.20
2022-12-15T07:41:05.651Z,19.50
2022-12-15T07:43:38.600Z,18.50
2022-12-15T07:46:11.302Z,24.40
2022-12-15T07:48:43.512Z,22.70
2022-12-15T07:51:19.711Z,24.00
2022-12-15T07:53:52.920Z,22.70
2022-12-15T07:56:25.139Z,18.80
2022-12-15T07:58:57.271Z,18.40
2022-12-15T08:01:29.562Z,21.80
2022-12-15T08:04:02.255Z,20.70
2022-12-15T08:06:34.537Z,25.20
2022-12-15T08:09:06.724Z,17.50
2022-12-15T08:11:39.019Z,18.00
2022-12-15T08:14:16.889Z,20.60
2022-12-15T08:16:50.144Z,18.20
2022-12-15T08:19:22.586Z,17.60
2022-12-15T08:21:54.796Z,29.40
2022-12-15T08:24:27.259Z,21.00
2022-12-15T08:27:00.016Z,30.00
2022-12-15T08:29:50.722Z,22.90
2022-12-15T08:32:24.651Z,24.40
2022-12-15T08:34:56.952Z,25.00
2022-12-15T08:37:29.158Z,22.10
2022-12-15T08:40:01.283Z,17.40
2022-12-15T08:42:37.681Z,20.90
2022-12-15T08:45:12.549Z,24.10
2022-12-15T08:47:44.704Z,17.70
2022-12-15T08:50:17.060Z,17.70
2022-12-15T08:53:13.842Z,19.40
2022-12-15T08:55:41.827Z,14.50
2022-12-15T08:58:14.009Z,15.20
2022-12-15T09:00:46.679Z,16.30
2022-12-15T09:03:18.833Z,14.20
2022-12-15T09:05:51.023Z,15.50
2022-12-15T09:08:23.156Z,13.80
2022-12-15T09:10:55.307Z,13.80
2022-12-15T09:13:28.003Z,16.70
2022-12-15T09:16:10.758Z,15.60
2022-12-15T09:18:45.522Z,25.70
2022-12-15T09:21:19.170Z,12.20
2022-12-15T09:23:52.861Z,14.10
2022-12-15T09:26:26.170Z,17.10
2022-12-15T09:28:59.008Z,15.50
2022-12-15T09:31:33.034Z,13.90
2022-12-15T09:34:05.426Z,11.20
2022-12-15T09:36:37.586Z,11.70
2022-12-15T09:39:12.024Z,12.20
2022-12-15T09:41:59.756Z,10.80
2022-12-15T09:44:33.916Z,11.80
2022-12-15T09:47:16.180Z,10.50
2022-12-15T09:49:55.573Z,11.60
2022-12-15T09:52:30.247Z,11.20
2022-12-15T09:55:04.250Z,9.90
2022-12-15T09:57:42.132Z,8.80
2022-12-15T10:00:22.330Z,13.20
2022-12-15T10:03:36.508Z,15.30
2022-12-15T10:06:17.772Z,13.10
2022-12-15T10:08:56.075Z,10.80
2022-12-15T10:11:50.182Z,14.30
2022-12-15T10:14:33.526Z,12.60
2022-12-15T10:17:17.229Z,10.60
2022-12-15T10:19:55.311Z,13.50
2022-12-15T10:22:32.062Z,11.90
2022-12-15T10:25:14.991Z,11.20
2022-12-15T10:28:08.216Z,9.00
2022-12-15T10:30:51.408Z,9.30
2022-12-15T10:33:28.422Z,8.60
2022-12-15T10:36:01.016Z,11.80
2022-12-15T10:38:38.565Z,9.60
2022-12-15T10:41:12.931Z,10.70
2022-12-15T10:43:47.602Z,11.90
2022-12-15T10:46:24.307Z,12.00
2022-12-15T10:49:00.432Z,10.70
2022-12-15T10:51:34.429Z,14.00
2022-12-15T10:54:13.313Z,10.70
2022-12-15T10:56:52.765Z,12.20
2022-12-15T10:59:31.203Z,10.60
2022-12-15T11:02:27.308Z,13.70
2022-12-15T11:05:01.280Z,10.10
2022-12-15T11:07:39.905Z,12.00
2022-12-15T11:10:50.044Z,12.30
2022-12-15T11:13:27.310Z,11.80
2022-12-15T11:16:16.280Z,11.80
2022-12-15T11:21:25.632Z,11.90
2022-12-15T11:26:50.329Z,10.50
2022-12-15T11:29:34.584Z,11.10
2022-12-15T11:32:07.701Z,10.90
2022-12-15T11:34:43.386Z,9.90
2022-12-15T11:37:36.421Z,15.40
2022-12-15T11:40:30.982Z,12.80
2022-12-15T11:43:28.411Z,9.20
2022-12-15T11:46:17.515Z,13.70
2022-12-15T11:49:16.243Z,12.60
2022-12-15T11:51:54.992Z,13.70
2022-12-15T11:54:36.051Z,16.00
2022-12-15T11:57:27.705Z,14.20
2022-12-15T12:00:07.124Z,13.10
2022-12-15T12:03:05.538Z,16.10
2022-12-15T12:05:51.915Z,12.90
2022-12-15T12:08:39.513Z,15.00
2022-12-15T12:11:16.882Z,14.40
2022-12-15T12:14:11.941Z,19.00
2022-12-15T12:16:51.360Z,12.80
2022-12-15T12:19:32.237Z,15.60
2022-12-15T12:22:08.686Z,13.80
2022-12-15T12:24:48.972Z,14.20
2022-12-15T12:27:31.906Z,14.30
2022-12-15T12:30:10.067Z,14.00
2022-12-15T12:32:50.497Z,14.10
2022-12-15T12:35:32.885Z,13.00
2022-12-15T12:38:08.139Z,12.60
2022-12-15T12:40:54.587Z,13.80
2022-12-15T12:46:06.875Z,13.60
2022-12-15T12:48:44.922Z,15.90
2022-12-15T12:51:28.404Z,12.30
2022-12-15T12:54:02.185Z,13.00
2022-12-15T12:56:45.590Z,10.30
2022-12-15T12:59:44.979Z,10.40
2022-12-15T13:02:55.160Z,14.10
2022-12-15T13:05:33.771Z,16.60
2022-12-15T13:12:14.959Z,13.70
2022-12-15T13:14:57.321Z,15.00
2022-12-15T13:17:39.477Z,14.10
2022-12-15T13:20:29.499Z,13.30
2022-12-15T13:23:31.675Z,13.40
2022-12-15T13:26:16.281Z,12.50
2022-12-15T13:28:53.165Z,11.80
2022-12-15T13:31:34.458Z,14.10
2022-12-15T13:34:23.202Z,12.70
2022-12-15T13:37:03.167Z,13.50
2022-12-15T13:39:49.968Z,14.70
2022-12-15T13:42:48.233Z,12.30
2022-12-15T13:45:44.171Z,12.70
2022-12-15T13:48:25.773Z,15.00
2022-12-15T13:51:06.043Z,9.90
2022-12-15T13:53:44.690Z,15.30
2022-12-15T13:56:42.942Z,18.10
2022-12-15T13:59:26.714Z,16.10
2022-12-15T14:01:58.916Z,17.30
2022-12-15T14:04:31.352Z,20.10
2022-12-15T14:07:04.498Z,24.40
2022-12-15T14:09:40.616Z,20.70
2022-12-15T14:12:16.685Z,21.40
2022-12-15T14:14:52.541Z,22.40
2022-12-15T14:17:25.034Z,17.80
2022-12-15T14:19:57.404Z,23.80
2022-12-15T14:22:31.113Z,17.70
2022-12-15T14:25:05.428Z,21.10
2022-12-15T14:27:37.575Z,25.30
2022-12-15T14:30:29.378Z,19.00
2022-12-15T14:33:07.111Z,21.60
2022-12-15T14:35:42.828Z,19.50
2022-12-15T14:38:19.359Z,19.20
2022-12-15T14:40:53.293Z,20.30
2022-12-15T14:43:28.844Z,19.80
2022-12-15T14:48:45.368Z,19.10
2022-12-15T14:51:17.726Z,19.30
2022-12-15T14:53:53.458Z,25.00
2022-12-15T14:59:05.973Z,20.90
2022-12-15T15:01:42.195Z,17.50
2022-12-15T15:03:11.154Z,16.10
2022-12-15T15:04:29.307Z,20.90
2022-12-15T15:07:04.326Z,17.10
2022-12-15T15:09:42.202Z,16.90
2022-12-15T15:12:18.494Z,19.30
2022-12-15T15:14:54.802Z,20.20
2022-12-15T15:17:32.493Z,18.20
2022-12-15T15:20:08.416Z,20.90
2022-12-15T15:22:43.611Z,14.30
2022-12-15T15:25:41.132Z,16.00
2022-12-15T15:28:24.994Z,19.20
2022-12-15T15:31:00.612Z,18.20
2022-12-15T15:33:33.236Z,19.50
2022-12-15T15:36:11.411Z,18.50
2022-12-15T15:38:46.765Z,21.20
2022-12-15T15:41:21.140Z,20.60
2022-12-15T15:43:53.411Z,20.70
2022-12-15T15:46:29.574Z,20.50
2022-12-15T15:49:04.883Z,23.50
2022-12-15T15:51:37.872Z,21.00
2022-12-15T15:54:14.326Z,26.10
2022-12-15T15:56:46.608Z,24.40
2022-12-15T15:59:21.163Z,24.80
2022-12-15T16:01:57.706Z,26.60
2022-12-15T16:04:30.008Z,22.70
2022-12-15T16:07:02.182Z,25.50
2022-12-15T16:09:36.011Z,27.80
2022-12-15T16:12:11.606Z,25.60
2022-12-15T16:14:43.790Z,21.90
2022-12-15T16:17:17.346Z,27.40
2022-12-15T16:19:49.590Z,28.90
2022-12-15T16:22:23.623Z,27.20
2022-12-15T16:24:56.578Z,23.70
2022-12-15T16:27:28.811Z,23.70
2022-12-15T16:30:01.052Z,28.60
2022-12-15T16:32:33.256Z,27.90
2022-12-15T16:35:07.140Z,27.00
2022-12-15T16:37:42.114Z,28.80
2022-12-15T16:40:20.535Z,30.00
2022-12-15T16:42:58.289Z,28.20
2022-12-15T16:45:32.239Z,24.40
2022-12-15T16:48:04.612Z,24.60
2022-12-15T16:50:40.319Z,22.80
2022-12-15T16:53:18.324Z,26.70
2022-12-15T16:55:53.776Z,24.80
2022-12-15T16:58:27.353Z,28.50
2022-12-15T17:00:59.578Z,27.10
2022-12-15T17:03:31.990Z,30.60
2022-12-15T17:06:08.991Z,30.60
2022-12-15T17:08:44.907Z,29.50
2022-12-15T17:11:20.507Z,27.10
2022-12-15T17:13:55.035Z,31.60
2022-12-15T17:16:29.683Z,32.50
2022-12-15T17:19:01.931Z,31.50
2022-12-15T17:21:36.953Z,33.20
2022-12-15T17:24:15.041Z,34.90
2022-12-15T17:26:47.667Z,28.30
2022-12-15T17:29:23.087Z,31.50
2022-12-15T17:31:55.636Z,30.90
2022-12-15T17:34:31.331Z,31.90
2022-12-15T17:37:06.171Z,32.10
2022-12-15T17:39:38.768Z,33.50
2022-12-15T17:42:18.223Z,31.70
2022-12-15T17:44:51.635Z,36.20
2022-12-15T17:47:25.519Z,32.50
2022-12-15T17:49:57.767Z,35.30
2022-12-15T17:52:34.560Z,34.30
2022-12-15T17:55:19.617Z,55.50
2022-12-15T17:57:53.725Z,40.10
2022-12-15T18:00:29.194Z,38.20
2022-12-15T18:03:02.695Z,39.50
2022-12-15T18:05:35.383Z,39.60
2022-12-15T18:08:15.326Z,36.30
2022-12-15T18:10:50.537Z,41.70
2022-12-15T18:13:26.057Z,36.70
2022-12-15T18:15:59.295Z,35.70
2022-12-15T18:18:31.625Z,36.50
2022-12-15T18:21:13.099Z,40.80
2022-12-15T18:23:47.659Z,39.30
2022-12-15T18:26:19.831Z,36.80
2022-12-15T18:28:51.991Z,41.80
2022-12-15T18:31:27.068Z,41.80
2022-12-15T18:34:04.295Z,33.90
2022-12-15T18:36:37.320Z,36.20
2022-12-15T18:39:19.696Z,34.90
2022-12-15T18:41:54.769Z,36.40
2022-12-15T18:44:28.984Z,46.30
2022-12-15T18:47:01.226Z,40.00
2022-12-15T18:49:33.391Z,41.60
2022-12-15T18:52:05.669Z,55.00
2022-12-15T18:54:38.763Z,52.50
2022-12-15T18:57:31.261Z,36.90
2022-12-15T19:00:09.242Z,51.30
2022-12-15T19:02:41.969Z,45.40
2022-12-15T19:05:27.863Z,45.30
2022-12-15T19:08:04.565Z,43.20
2022-12-15T19:10:38.725Z,39.20
2022-12-15T19:13:16.730Z,41.90
2022-12-15T19:15:49.199Z,44.20
2022-12-15T19:18:40.657Z,44.70
2022-12-15T19:21:36.751Z,40.80
2022-12-15T19:24:11.538Z,37.50
2022-12-15T19:26:44.123Z,38.20
2022-12-15T19:29:21.282Z,35.50
2022-12-15T19:31:54.891Z,39.10
2022-12-15T19:34:27.226Z,45.90
2022-12-15T19:36:59.889Z,39.30
2022-12-15T19:39:35.267Z,37.80
2022-12-15T19:42:15.270Z,40.70
2022-12-15T19:44:47.414Z,37.60
2022-12-15T19:47:19.870Z,35.40
2022-12-15T19:49:52.958Z,39.60
2022-12-15T19:52:28.370Z,31.60
2022-12-15T19:55:00.782Z,34.70
2022-12-15T19:57:33.664Z,49.00
2022-12-15T20:00:12.039Z,43.80
2022-12-15T20:02:44.737Z,43.90
2022-12-15T20:05:17.098Z,54.20
2022-12-15T20:07:50.071Z,55.00
2022-12-15T20:10:31.321Z,54.00
2022-12-15T20:13:04.451Z,51.50
2022-12-15T20:15:36.594Z,55.90
2022-12-15T20:18:09.436Z,55.10
2022-12-15T20:20:43.550Z,50.20
2022-12-15T20:23:19.409Z,55.60
2022-12-15T20:25:51.607Z,51.40
2022-12-15T20:28:26.597Z,57.60
2022-12-15T20:31:00.119Z,52.50
2022-12-15T20:33:32.658Z,53.60
2022-12-15T20:36:05.330Z,54.50
2022-12-15T20:38:37.511Z,45.70
2022-12-15T20:41:16.058Z,61.50
2022-12-15T20:43:48.967Z,47.70
2022-12-15T20:46:24.197Z,53.40
2022-12-15T20:48:57.727Z,50.70
2022-12-15T20:51:31.733Z,53.80
2022-12-15T20:54:14.578Z,55.20
2022-12-15T20:56:47.896Z,56.30
2022-12-15T20:59:20.310Z,50.00
2022-12-15T21:01:52.673Z,45.00
2022-12-15T21:04:29.599Z,43.80
2022-12-15T21:07:01.775Z,47.20
2022-12-15T21:09:33.939Z,50.00
2022-12-15T21:12:09.684Z,52.10
2022-12-15T21:14:41.826Z,52.80
2022-12-15T21:17:17.488Z,44.90
2022-12-15T21:19:50.421Z,45.80
2022-12-15T21:22:26.498Z,47.90
2022-12-15T21:25:00.671Z,43.90
2022-12-15T21:27:32.937Z,47.60
2022-12-15T21:30:07.307Z,43.20
2022-12-15T21:32:39.945Z,48.10
2022-12-15T21:35:17.360Z,50.10
2022-12-15T21:37:51.749Z,36.00
2022-12-15T21:40:28.832Z,46.40
2022-12-15T21:43:04.338Z,44.50
2022-12-15T21:45:36.470Z,51.60
2022-12-15T21:48:26.996Z,36.20
2022-12-15T21:50:59.140Z,44.50
2022-12-15T21:53:31.388Z,49.60
2022-12-15T21:56:03.556Z,47.20
2022-12-15T21:58:35.861Z,46.30
2022-12-15T22:01:10.289Z,48.30
2022-12-15T22:03:42.894Z,51.50
2022-12-15T22:06:20.185Z,43.00
2022-12-15T22:08:55.406Z,50.40
2022-12-15T22:11:28.862Z,48.60
2022-12-15T22:14:03.422Z,49.90
2022-12-15T22:16:35.906Z,48.40
2022-12-15T22:19:14.637Z,48.60
2022-12-15T22:21:46.798Z,50.10
2022-12-15T22:24:19.126Z,42.90
2022-12-15T22:26:51.666Z,48.20
2022-12-15T22:29:25.447Z,55.40
2022-12-15T22:31:58.260Z,47.40
2022-12-15T22:34:34.724Z,57.20
2022-12-15T22:37:06.967Z,57.70
2022-12-15T22:39:39.107Z,67.20
2022-12-15T22:42:16.247Z,52.90
2022-12-15T22:44:48.630Z,51.10
2022-12-15T22:47:20.875Z,53.10
2022-12-15T22:49:53.050Z,54.50
2022-12-15T22:52:26.879Z,64.40
2022-12-15T22:54:59.200Z,60.00
2022-12-15T22:57:31.618Z,57.40
2022-12-15T23:00:07.476Z,60.80
2022-12-15T23:02:44.399Z,65.30
2022-12-15T23:05:20.080Z,83.20
2022-12-15T23:07:52.643Z,66.50
2022-12-15T23:10:44.801Z,65.50
2022-12-15T23:13:16.939Z,67.60
2022-12-15T23:16:06.512Z,82.70
2022-12-15T23:18:39.010Z,69.60
2022-12-15T23:21:11.496Z,70.40
2022-12-15T23:23:44.054Z,71.00
2022-12-15T23:26:17.556Z,74.30
2022-12-15T23:28:49.770Z,65.40
2022-12-15T23:31:23.764Z,77.30
2022-12-15T23:33:55.996Z,75.80
2022-12-15T23:36:28.170Z,76.00
2022-12-15T23:39:01.261Z,64.10
2022-12-15T23:41:33.397Z,74.30
2022-12-15T23:44:05.914Z,74.80
2022-12-15T23:46:38.073Z,87.30
2022-12-15T23:49:10.287Z,67.60
2022-12-15T23:51:42.539Z,66.80
2022-12-15T23:54:14.740Z,78.20
2022-12-15T23:56:46.955Z,73.00
2022-12-15T23:59:19.086Z,60.80
